Daggett, Indiana
Current Conditions -  °F | °C
As of 3:53 AM on Monday 22 Dec 2014 (Local Time) from KBMG Reporting Station
Overcast Overcast  
Wind Chill: 24°   Ceiling: 3400
Heat Index: 31°   Visibility: 9mi
Dew Point: 27°   Wind: 7mph
Humidity: 85%   Direction: 120°ESE
Pressure: 29.99"   Gusts: NA
Location:  39.2488°N, 86.9879°W
Report Text: KBMG 220853Z AUTO 12006KT 9SM BKN034 OVC100 M01/M03 A2999 RMK AO2 SLP160 T10061028 56013
Loading
Personal Weather Stations






























Interactive Weather Map New forecast layout! Learn more

10-Day Weather Forecast

Advertisements
Track Severe Weather on mobile